sensor_id;sensor_type;location;lat;lon;timestamp;temperature;humidity
65864;SHT30;52639;51.180;20.460;2023-03-17T00:01:53;-5.40;75.66
65864;SHT30;52639;51.180;20.460;2023-03-17T00:05:57;-5.46;75.57
65864;SHT30;52639;51.180;20.460;2023-03-17T00:10:01;-5.69;75.98
65864;SHT30;52639;51.180;20.460;2023-03-17T00:14:05;-5.68;76.07
65864;SHT30;52639;51.180;20.460;2023-03-17T00:18:11;-5.62;75.77
65864;SHT30;52639;51.180;20.460;2023-03-17T00:22:17;-5.70;75.74
65864;SHT30;52639;51.180;20.460;2023-03-17T00:26:22;-5.42;76.84
65864;SHT30;52639;51.180;20.460;2023-03-17T00:30:27;-5.54;75.68
65864;SHT30;52639;51.180;20.460;2023-03-17T00:34:30;-5.72;75.73
65864;SHT30;52639;51.180;20.460;2023-03-17T00:38:34;-5.78;76.45
65864;SHT30;52639;51.180;20.460;2023-03-17T00:42:37;-5.63;76.98
65864;SHT30;52639;51.180;20.460;2023-03-17T00:46:42;-5.54;76.35
65864;SHT30;52639;51.180;20.460;2023-03-17T00:50:48;-5.51;77.06
65864;SHT30;52639;51.180;20.460;2023-03-17T00:54:51;-5.56;77.20
65864;SHT30;52639;51.180;20.460;2023-03-17T00:58:54;-5.63;77.21
65864;SHT30;52639;51.180;20.460;2023-03-17T01:02:58;-5.65;77.43
65864;SHT30;52639;51.180;20.460;2023-03-17T01:07:01;-5.82;77.01
65864;SHT30;52639;51.180;20.460;2023-03-17T01:11:05;-6.02;76.76
65864;SHT30;52639;51.180;20.460;2023-03-17T01:15:09;-5.87;78.12
65864;SHT30;52639;51.180;20.460;2023-03-17T01:19:14;-5.89;76.91
65864;SHT30;52639;51.180;20.460;2023-03-17T01:23:17;-5.96;77.06
65864;SHT30;52639;51.180;20.460;2023-03-17T01:27:20;-5.45;78.22
65864;SHT30;52639;51.180;20.460;2023-03-17T01:31:23;-5.45;77.86
65864;SHT30;52639;51.180;20.460;2023-03-17T01:35:28;-5.63;77.85
65864;SHT30;52639;51.180;20.460;2023-03-17T01:39:31;-5.70;77.92
65864;SHT30;52639;51.180;20.460;2023-03-17T01:43:34;-5.65;77.65
65864;SHT30;52639;51.180;20.460;2023-03-17T01:47:38;-5.70;77.42
65864;SHT30;52639;51.180;20.460;2023-03-17T01:51:49;-5.51;78.29
65864;SHT30;52639;51.180;20.460;2023-03-17T01:55:55;-5.48;77.85
65864;SHT30;52639;51.180;20.460;2023-03-17T02:00:03;-5.52;77.67
65864;SHT30;52639;51.180;20.460;2023-03-17T02:04:09;-5.54;77.29
65864;SHT30;52639;51.180;20.460;2023-03-17T02:08:14;-5.55;77.11
65864;SHT30;52639;51.180;20.460;2023-03-17T02:12:18;-5.40;78.46
65864;SHT30;52639;51.180;20.460;2023-03-17T02:16:22;-5.43;78.36
65864;SHT30;52639;51.180;20.460;2023-03-17T02:25:16;-5.59;78.18
65864;SHT30;52639;51.180;20.460;2023-03-17T02:29:21;-5.58;78.48
65864;SHT30;52639;51.180;20.460;2023-03-17T02:33:24;-5.69;79.98
65864;SHT30;52639;51.180;20.460;2023-03-17T02:37:27;-5.63;78.96
65864;SHT30;52639;51.180;20.460;2023-03-17T02:41:32;-5.59;78.02
65864;SHT30;52639;51.180;20.460;2023-03-17T02:45:35;-5.65;78.58
65864;SHT30;52639;51.180;20.460;2023-03-17T02:49:39;-5.60;78.79
65864;SHT30;52639;51.180;20.460;2023-03-17T02:53:42;-5.56;79.87
65864;SHT30;52639;51.180;20.460;2023-03-17T02:57:46;-5.60;80.18
65864;SHT30;52639;51.180;20.460;2023-03-17T03:01:49;-5.59;79.71
65864;SHT30;52639;51.180;20.460;2023-03-17T03:05:52;-5.62;79.69
65864;SHT30;52639;51.180;20.460;2023-03-17T03:09:55;-5.62;79.91
65864;SHT30;52639;51.180;20.460;2023-03-17T03:14:01;-5.62;79.03
65864;SHT30;52639;51.180;20.460;2023-03-17T03:18:04;-5.63;79.58
65864;SHT30;52639;51.180;20.460;2023-03-17T03:22:07;-5.63;79.06
65864;SHT30;52639;51.180;20.460;2023-03-17T03:26:10;-5.79;79.04
65864;SHT30;52639;51.180;20.460;2023-03-17T03:30:15;-5.66;79.14
65864;SHT30;52639;51.180;20.460;2023-03-17T03:34:18;-5.56;79.19
65864;SHT30;52639;51.180;20.460;2023-03-17T03:38:21;-5.58;78.95
65864;SHT30;52639;51.180;20.460;2023-03-17T03:42:23;-5.43;80.21
65864;SHT30;52639;51.180;20.460;2023-03-17T03:46:28;-5.51;79.85
65864;SHT30;52639;51.180;20.460;2023-03-17T03:50:31;-5.43;80.45
65864;SHT30;52639;51.180;20.460;2023-03-17T03:54:34;-5.49;79.87
65864;SHT30;52639;51.180;20.460;2023-03-17T03:58:37;-5.56;81.04
65864;SHT30;52639;51.180;20.460;2023-03-17T04:02:43;-5.59;80.36
65864;SHT30;52639;51.180;20.460;2023-03-17T04:06:47;-5.56;79.46
65864;SHT30;52639;51.180;20.460;2023-03-17T04:10:50;-5.48;79.77
65864;SHT30;52639;51.180;20.460;2023-03-17T04:14:53;-5.51;80.64
65864;SHT30;52639;51.180;20.460;2023-03-17T04:18:57;-5.45;80.82
65864;SHT30;52639;51.180;20.460;2023-03-17T04:23:00;-5.56;80.29
65864;SHT30;52639;51.180;20.460;2023-03-17T04:27:03;-5.42;79.88
65864;SHT30;52639;51.180;20.460;2023-03-17T04:31:07;-5.35;80.02
65864;SHT30;52639;51.180;20.460;2023-03-17T04:35:14;-5.24;80.46
65864;SHT30;52639;51.180;20.460;2023-03-17T04:39:17;-5.17;81.83
65864;SHT30;52639;51.180;20.460;2023-03-17T04:43:21;-5.28;80.34
65864;SHT30;52639;51.180;20.460;2023-03-17T04:47:24;-5.28;80.18
65864;SHT30;52639;51.180;20.460;2023-03-17T04:51:29;-5.40;78.60
65864;SHT30;52639;51.180;20.460;2023-03-17T04:55:32;-5.54;81.11
65864;SHT30;52639;51.180;20.460;2023-03-17T04:59:34;-5.59;80.69
65864;SHT30;52639;51.180;20.460;2023-03-17T05:03:37;-5.56;81.76
65864;SHT30;52639;51.180;20.460;2023-03-17T05:07:41;-5.39;82.09
65864;SHT30;52639;51.180;20.460;2023-03-17T05:11:45;-4.97;83.13
65864;SHT30;52639;51.180;20.460;2023-03-17T05:15:48;-4.88;79.98
65864;SHT30;52639;51.180;20.460;2023-03-17T05:19:51;-4.91;81.48
65864;SHT30;52639;51.180;20.460;2023-03-17T05:23:56;-4.71;80.44
65864;SHT30;52639;51.180;20.460;2023-03-17T05:27:59;-4.71;82.53
65864;SHT30;52639;51.180;20.460;2023-03-17T05:32:02;-4.52;81.62
65864;SHT30;52639;51.180;20.460;2023-03-17T05:36:06;-4.30;84.53
65864;SHT30;52639;51.180;20.460;2023-03-17T05:40:12;-4.01;84.22
65864;SHT30;52639;51.180;20.460;2023-03-17T05:44:15;-3.52;83.99
65864;SHT30;52639;51.180;20.460;2023-03-17T05:48:18;-3.03;83.18
65864;SHT30;52639;51.180;20.460;2023-03-17T05:52:21;-2.68;83.45
65864;SHT30;52639;51.180;20.460;2023-03-17T05:56:26;-1.94;82.15
65864;SHT30;52639;51.180;20.460;2023-03-17T06:00:33;-0.37;79.66
65864;SHT30;52639;51.180;20.460;2023-03-17T06:04:36;0.44;77.06
65864;SHT30;52639;51.180;20.460;2023-03-17T06:08:39;2.00;73.74
65864;SHT30;52639;51.180;20.460;2023-03-17T06:12:44;3.99;69.01
65864;SHT30;52639;51.180;20.460;2023-03-17T06:16:47;5.47;64.42
65864;SHT30;52639;51.180;20.460;2023-03-17T06:20:49;6.67;63.51
65864;SHT30;52639;51.180;20.460;2023-03-17T06:24:53;9.35;59.68
65864;SHT30;52639;51.180;20.460;2023-03-17T06:28:57;10.25;58.22
65864;SHT30;52639;51.180;20.460;2023-03-17T06:33:00;11.37;57.17
65864;SHT30;52639;51.180;20.460;2023-03-17T06:37:03;12.96;57.56
65864;SHT30;52639;51.180;20.460;2023-03-17T06:41:07;13.64;53.30
65864;SHT30;52639;51.180;20.460;2023-03-17T06:45:12;14.17;56.75
65864;SHT30;52639;51.180;20.460;2023-03-17T06:49:15;14.39;54.04
65864;SHT30;52639;51.180;20.460;2023-03-17T06:53:17;15.91;51.78
65864;SHT30;52639;51.180;20.460;2023-03-17T06:57:21;15.80;52.44
65864;SHT30;52639;51.180;20.460;2023-03-17T07:01:25;15.54;51.42
65864;SHT30;52639;51.180;20.460;2023-03-17T07:05:29;16.62;50.14
65864;SHT30;52639;51.180;20.460;2023-03-17T07:09:32;16.55;48.80
65864;SHT30;52639;51.180;20.460;2023-03-17T07:13:35;17.30;49.00
65864;SHT30;52639;51.180;20.460;2023-03-17T07:17:41;17.84;46.33
65864;SHT30;52639;51.180;20.460;2023-03-17T07:21:44;18.35;45.39
65864;SHT30;52639;51.180;20.460;2023-03-17T07:25:47;18.96;44.17
65864;SHT30;52639;51.180;20.460;2023-03-17T07:29:49;18.56;45.13
65864;SHT30;52639;51.180;20.460;2023-03-17T07:33:54;17.60;43.31
65864;SHT30;52639;51.180;20.460;2023-03-17T07:37:58;17.89;42.12
65864;SHT30;52639;51.180;20.460;2023-03-17T07:42:01;18.06;40.84
65864;SHT30;52639;51.180;20.460;2023-03-17T07:46:05;19.24;38.95
65864;SHT30;52639;51.180;20.460;2023-03-17T07:50:10;18.97;39.37
65864;SHT30;52639;51.180;20.460;2023-03-17T07:54:13;18.26;39.92
65864;SHT30;52639;51.180;20.460;2023-03-17T07:58:17;17.30;39.03
65864;SHT30;52639;51.180;20.460;2023-03-17T08:02:20;17.85;38.38
65864;SHT30;52639;51.180;20.460;2023-03-17T08:06:24;17.82;37.28
65864;SHT30;52639;51.180;20.460;2023-03-17T08:10:27;19.96;35.64
65864;SHT30;52639;51.180;20.460;2023-03-17T08:14:31;18.61;36.40
65864;SHT30;52639;51.180;20.460;2023-03-17T08:18:33;19.14;35.25
65864;SHT30;52639;51.180;20.460;2023-03-17T08:22:38;20.02;34.34
65864;SHT30;52639;51.180;20.460;2023-03-17T08:26:41;20.47;34.46
65864;SHT30;52639;51.180;20.460;2023-03-17T08:30:44;18.57;35.52
65864;SHT30;52639;51.180;20.460;2023-03-17T08:34:52;19.14;33.87
65864;SHT30;52639;51.180;20.460;2023-03-17T08:38:56;18.29;34.55
65864;SHT30;52639;51.180;20.460;2023-03-17T08:42:59;17.67;34.53
65864;SHT30;52639;51.180;20.460;2023-03-17T08:47:03;18.83;33.61
65864;SHT30;52639;51.180;20.460;2023-03-17T08:51:06;19.30;32.96
65864;SHT30;52639;51.180;20.460;2023-03-17T08:55:12;19.99;32.29
65864;SHT30;52639;51.180;20.460;2023-03-17T08:59:16;18.99;32.29
65864;SHT30;52639;51.180;20.460;2023-03-17T09:03:19;18.13;27.30
65864;SHT30;52639;51.180;20.460;2023-03-17T09:07:23;18.56;33.29
65864;SHT30;52639;51.180;20.460;2023-03-17T09:11:29;18.67;32.77
65864;SHT30;52639;51.180;20.460;2023-03-17T09:15:33;18.04;32.92
65864;SHT30;52639;51.180;20.460;2023-03-17T09:19:36;19.39;31.71
65864;SHT30;52639;51.180;20.460;2023-03-17T09:23:41;19.11;32.69
65864;SHT30;52639;51.180;20.460;2023-03-17T09:27:45;18.61;33.40
65864;SHT30;52639;51.180;20.460;2023-03-17T09:31:48;18.16;32.89
65864;SHT30;52639;51.180;20.460;2023-03-17T09:35:52;17.81;31.85
65864;SHT30;52639;51.180;20.460;2023-03-17T09:39:57;17.38;32.58
65864;SHT30;52639;51.180;20.460;2023-03-17T09:44:14;18.06;31.98
65864;SHT30;52639;51.180;20.460;2023-03-17T09:48:28;18.09;31.92
65864;SHT30;52639;51.180;20.460;2023-03-17T09:52:35;17.57;33.06
65864;SHT30;52639;51.180;20.460;2023-03-17T09:56:40;17.16;33.75
65864;SHT30;52639;51.180;20.460;2023-03-17T10:00:46;18.05;30.66
65864;SHT30;52639;51.180;20.460;2023-03-17T10:04:50;16.90;32.77
65864;SHT30;52639;51.180;20.460;2023-03-17T10:08:57;16.02;32.82
65864;SHT30;52639;51.180;20.460;2023-03-17T10:13:08;15.07;34.21
65864;SHT30;52639;51.180;20.460;2023-03-17T10:17:17;14.08;30.85
65864;SHT30;52639;51.180;20.460;2023-03-17T10:21:24;14.99;29.81
65864;SHT30;52639;51.180;20.460;2023-03-17T10:25:30;13.92;33.62
65864;SHT30;52639;51.180;20.460;2023-03-17T10:29:33;11.60;36.04
65864;SHT30;52639;51.180;20.460;2023-03-17T10:33:38;11.22;37.30
65864;SHT30;52639;51.180;20.460;2023-03-17T10:37:41;10.89;35.76
65864;SHT30;52639;51.180;20.460;2023-03-17T10:41:54;10.14;36.01
65864;SHT30;52639;51.180;20.460;2023-03-17T10:45:58;10.07;35.59
65864;SHT30;52639;51.180;20.460;2023-03-17T10:50:21;10.20;35.58
65864;SHT30;52639;51.180;20.460;2023-03-17T10:54:25;10.38;35.71
65864;SHT30;52639;51.180;20.460;2023-03-17T10:58:35;10.82;35.73
65864;SHT30;52639;51.180;20.460;2023-03-17T11:02:45;10.56;35.65
65864;SHT30;52639;51.180;20.460;2023-03-17T11:06:50;10.73;34.56
65864;SHT30;52639;51.180;20.460;2023-03-17T11:10:55;10.41;34.77
65864;SHT30;52639;51.180;20.460;2023-03-17T11:14:59;10.59;35.33
65864;SHT30;52639;51.180;20.460;2023-03-17T11:19:06;10.42;33.74
65864;SHT30;52639;51.180;20.460;2023-03-17T11:23:23;10.34;36.17
65864;SHT30;52639;51.180;20.460;2023-03-17T11:27:30;10.35;35.81
65864;SHT30;52639;51.180;20.460;2023-03-17T11:31:39;10.35;33.91
65864;SHT30;52639;51.180;20.460;2023-03-17T11:35:49;10.64;35.69
65864;SHT30;52639;51.180;20.460;2023-03-17T11:40:02;10.75;35.70
65864;SHT30;52639;51.180;20.460;2023-03-17T11:44:27;10.48;34.24
65864;SHT30;52639;51.180;20.460;2023-03-17T11:48:42;10.45;35.68
65864;SHT30;52639;51.180;20.460;2023-03-17T11:52:57;10.45;35.63
65864;SHT30;52639;51.180;20.460;2023-03-17T11:57:08;10.41;36.15
65864;SHT30;52639;51.180;20.460;2023-03-17T12:01:15;10.33;33.68
65864;SHT30;52639;51.180;20.460;2023-03-17T12:05:23;10.41;35.57
65864;SHT30;52639;51.180;20.460;2023-03-17T12:09:29;10.38;34.61
65864;SHT30;52639;51.180;20.460;2023-03-17T12:13:37;10.24;35.42
65864;SHT30;52639;51.180;20.460;2023-03-17T12:17:49;10.33;35.57
65864;SHT30;52639;51.180;20.460;2023-03-17T12:21:55;10.20;34.79
65864;SHT30;52639;51.180;20.460;2023-03-17T12:26:03;10.21;35.65
65864;SHT30;52639;51.180;20.460;2023-03-17T12:30:20;10.31;36.29
65864;SHT30;52639;51.180;20.460;2023-03-17T12:34:30;10.22;36.45
65864;SHT30;52639;51.180;20.460;2023-03-17T12:38:39;10.28;36.01
65864;SHT30;52639;51.180;20.460;2023-03-17T12:42:45;10.04;36.60
65864;SHT30;52639;51.180;20.460;2023-03-17T12:51:30;9.98;35.89
65864;SHT30;52639;51.180;20.460;2023-03-17T12:55:36;10.13;36.67
65864;SHT30;52639;51.180;20.460;2023-03-17T12:59:42;10.24;36.80
65864;SHT30;52639;51.180;20.460;2023-03-17T13:03:59;10.18;36.31
65864;SHT30;52639;51.180;20.460;2023-03-17T13:08:05;10.22;36.36
65864;SHT30;52639;51.180;20.460;2023-03-17T13:16:50;10.42;35.38
65864;SHT30;52639;51.180;20.460;2023-03-17T13:21:11;10.10;36.17
65864;SHT30;52639;51.180;20.460;2023-03-17T13:25:28;9.91;35.34
65864;SHT30;52639;51.180;20.460;2023-03-17T13:29:43;9.98;34.97
65864;SHT30;52639;51.180;20.460;2023-03-17T13:33:52;9.93;36.03
65864;SHT30;52639;51.180;20.460;2023-03-17T13:38:27;10.11;35.67
65864;SHT30;52639;51.180;20.460;2023-03-17T13:42:59;9.98;37.28
65864;SHT30;52639;51.180;20.460;2023-03-17T13:47:23;9.93;36.35
65864;SHT30;52639;51.180;20.460;2023-03-17T13:51:31;9.95;38.07
65864;SHT30;52639;51.180;20.460;2023-03-17T13:55:41;10.00;37.60
65864;SHT30;52639;51.180;20.460;2023-03-17T14:00:00;9.57;37.52
65864;SHT30;52639;51.180;20.460;2023-03-17T14:04:05;9.69;37.14
65864;SHT30;52639;51.180;20.460;2023-03-17T14:08:17;9.50;37.85
65864;SHT30;52639;51.180;20.460;2023-03-17T14:12:27;9.51;36.50
65864;SHT30;52639;51.180;20.460;2023-03-17T14:16:35;9.51;36.53
65864;SHT30;52639;51.180;20.460;2023-03-17T14:20:39;9.67;36.53
65864;SHT30;52639;51.180;20.460;2023-03-17T14:24:42;9.67;37.06
65864;SHT30;52639;51.180;20.460;2023-03-17T14:28:46;9.74;37.03
65864;SHT30;52639;51.180;20.460;2023-03-17T14:32:55;9.49;36.34
65864;SHT30;52639;51.180;20.460;2023-03-17T14:37:01;9.44;37.06
65864;SHT30;52639;51.180;20.460;2023-03-17T14:41:14;9.36;37.36
65864;SHT30;52639;51.180;20.460;2023-03-17T14:45:26;9.26;37.65
65864;SHT30;52639;51.180;20.460;2023-03-17T14:49:29;9.20;37.24
65864;SHT30;52639;51.180;20.460;2023-03-17T14:53:35;9.09;36.92
65864;SHT30;52639;51.180;20.460;2023-03-17T14:57:40;9.09;38.04
65864;SHT30;52639;51.180;20.460;2023-03-17T15:01:46;8.96;38.21
65864;SHT30;52639;51.180;20.460;2023-03-17T15:05:49;8.84;38.87
65864;SHT30;52639;51.180;20.460;2023-03-17T15:09:57;8.99;39.16
65864;SHT30;52639;51.180;20.460;2023-03-17T15:14:06;9.12;38.29
65864;SHT30;52639;51.180;20.460;2023-03-17T15:18:17;9.25;38.78
65864;SHT30;52639;51.180;20.460;2023-03-17T15:22:23;9.32;38.67
65864;SHT30;52639;51.180;20.460;2023-03-17T15:26:29;9.16;38.34
65864;SHT30;52639;51.180;20.460;2023-03-17T15:30:32;9.16;39.24
65864;SHT30;52639;51.180;20.460;2023-03-17T15:34:37;8.95;38.81
65864;SHT30;52639;51.180;20.460;2023-03-17T15:38:41;8.71;38.58
65864;SHT30;52639;51.180;20.460;2023-03-17T15:42:44;8.41;37.96
65864;SHT30;52639;51.180;20.460;2023-03-17T15:46:47;8.13;37.91
65864;SHT30;52639;51.180;20.460;2023-03-17T15:50:54;7.83;39.84
65864;SHT30;52639;51.180;20.460;2023-03-17T15:54:58;7.56;40.30
65864;SHT30;52639;51.180;20.460;2023-03-17T15:59:01;7.48;40.59
65864;SHT30;52639;51.180;20.460;2023-03-17T16:03:11;7.19;40.94
65864;SHT30;52639;51.180;20.460;2023-03-17T16:07:18;7.07;40.65
65864;SHT30;52639;51.180;20.460;2023-03-17T16:11:25;6.98;41.12
65864;SHT30;52639;51.180;20.460;2023-03-17T16:15:31;6.83;41.20
65864;SHT30;52639;51.180;20.460;2023-03-17T16:19:35;6.64;41.30
65864;SHT30;52639;51.180;20.460;2023-03-17T16:23:40;6.50;41.80
65864;SHT30;52639;51.180;20.460;2023-03-17T16:27:43;6.20;42.18
65864;SHT30;52639;51.180;20.460;2023-03-17T16:31:48;5.88;42.79
65864;SHT30;52639;51.180;20.460;2023-03-17T16:35:52;5.83;43.09
65864;SHT30;52639;51.180;20.460;2023-03-17T16:39:58;5.85;42.99
65864;SHT30;52639;51.180;20.460;2023-03-17T16:44:02;5.69;43.42
65864;SHT30;52639;51.180;20.460;2023-03-17T16:48:11;5.48;43.76
65864;SHT30;52639;51.180;20.460;2023-03-17T16:52:15;5.24;44.02
65864;SHT30;52639;51.180;20.460;2023-03-17T16:56:21;5.18;44.57
65864;SHT30;52639;51.180;20.460;2023-03-17T17:00:28;4.98;44.74
65864;SHT30;52639;51.180;20.460;2023-03-17T17:04:32;4.59;45.03
65864;SHT30;52639;51.180;20.460;2023-03-17T17:08:41;4.30;45.73
65864;SHT30;52639;51.180;20.460;2023-03-17T17:12:46;4.28;45.84
65864;SHT30;52639;51.180;20.460;2023-03-17T17:16:50;3.81;47.48
65864;SHT30;52639;51.180;20.460;2023-03-17T17:20:54;3.79;47.19
65864;SHT30;52639;51.180;20.460;2023-03-17T17:24:57;3.99;47.69
65864;SHT30;52639;51.180;20.460;2023-03-17T17:29:13;3.89;46.52
65864;SHT30;52639;51.180;20.460;2023-03-17T17:33:34;3.94;47.01
65864;SHT30;52639;51.180;20.460;2023-03-17T17:37:49;3.57;47.29
65864;SHT30;52639;51.180;20.460;2023-03-17T17:42:03;3.10;47.94
65864;SHT30;52639;51.180;20.460;2023-03-17T17:46:25;3.03;49.06
65864;SHT30;52639;51.180;20.460;2023-03-17T17:50:40;3.14;49.08
65864;SHT30;52639;51.180;20.460;2023-03-17T17:54:50;3.07;49.59
65864;SHT30;52639;51.180;20.460;2023-03-17T17:59:02;2.80;50.04
65864;SHT30;52639;51.180;20.460;2023-03-17T18:03:19;2.69;50.15
65864;SHT30;52639;51.180;20.460;2023-03-17T18:07:27;3.07;51.11
65864;SHT30;52639;51.180;20.460;2023-03-17T18:11:32;3.11;51.50
65864;SHT30;52639;51.180;20.460;2023-03-17T18:15:43;3.19;51.30
65864;SHT30;52639;51.180;20.460;2023-03-17T18:19:51;3.26;52.90
65864;SHT30;52639;51.180;20.460;2023-03-17T18:23:55;3.19;52.43
65864;SHT30;52639;51.180;20.460;2023-03-17T18:28:00;3.30;52.58
65864;SHT30;52639;51.180;20.460;2023-03-17T18:32:11;3.41;54.09
65864;SHT30;52639;51.180;20.460;2023-03-17T18:36:25;3.33;53.16
65864;SHT30;52639;51.180;20.460;2023-03-17T18:40:30;3.28;53.79
65864;SHT30;52639;51.180;20.460;2023-03-17T18:44:35;3.27;53.63
65864;SHT30;52639;51.180;20.460;2023-03-17T18:48:41;3.16;55.97
65864;SHT30;52639;51.180;20.460;2023-03-17T18:52:48;3.17;52.57
65864;SHT30;52639;51.180;20.460;2023-03-17T18:56:54;3.19;56.47
65864;SHT30;52639;51.180;20.460;2023-03-17T19:01:01;3.07;53.61
65864;SHT30;52639;51.180;20.460;2023-03-17T19:05:07;3.16;55.25
65864;SHT30;52639;51.180;20.460;2023-03-17T19:09:18;3.10;55.43
65864;SHT30;52639;51.180;20.460;2023-03-17T19:13:28;3.10;56.06
65864;SHT30;52639;51.180;20.460;2023-03-17T19:17:34;3.09;56.55
65864;SHT30;52639;51.180;20.460;2023-03-17T19:21:41;3.14;55.78
65864;SHT30;52639;51.180;20.460;2023-03-17T19:25:52;2.95;56.62
65864;SHT30;52639;51.180;20.460;2023-03-17T19:29:57;3.00;57.44
65864;SHT30;52639;51.180;20.460;2023-03-17T19:34:03;3.03;57.11
65864;SHT30;52639;51.180;20.460;2023-03-17T19:38:10;2.96;56.50
65864;SHT30;52639;51.180;20.460;2023-03-17T19:42:21;2.96;56.34
65864;SHT30;52639;51.180;20.460;2023-03-17T19:46:26;3.10;57.58
65864;SHT30;52639;51.180;20.460;2023-03-17T19:50:32;3.13;57.85
65864;SHT30;52639;51.180;20.460;2023-03-17T19:54:37;3.01;58.36
65864;SHT30;52639;51.180;20.460;2023-03-17T19:58:48;3.01;56.63
65864;SHT30;52639;51.180;20.460;2023-03-17T20:02:55;3.00;57.40
65864;SHT30;52639;51.180;20.460;2023-03-17T20:07:05;2.89;56.64
65864;SHT30;52639;51.180;20.460;2023-03-17T20:11:19;3.00;58.76
65864;SHT30;52639;51.180;20.460;2023-03-17T20:15:29;3.00;57.11
65864;SHT30;52639;51.180;20.460;2023-03-17T20:19:39;3.11;57.06
65864;SHT30;52639;51.180;20.460;2023-03-17T20:23:45;2.86;56.58
65864;SHT30;52639;51.180;20.460;2023-03-17T20:27:50;3.01;57.67
65864;SHT30;52639;51.180;20.460;2023-03-17T20:32:00;3.01;58.27
65864;SHT30;52639;51.180;20.460;2023-03-17T20:36:06;2.86;57.43
65864;SHT30;52639;51.180;20.460;2023-03-17T20:40:13;2.87;58.11
65864;SHT30;52639;51.180;20.460;2023-03-17T20:44:19;2.96;57.80
65864;SHT30;52639;51.180;20.460;2023-03-17T20:48:26;2.95;56.90
65864;SHT30;52639;51.180;20.460;2023-03-17T20:52:33;2.95;57.18
65864;SHT30;52639;51.180;20.460;2023-03-17T20:56:45;2.92;56.61
65864;SHT30;52639;51.180;20.460;2023-03-17T21:00:57;2.79;57.65
65864;SHT30;52639;51.180;20.460;2023-03-17T21:05:04;2.90;57.15
65864;SHT30;52639;51.180;20.460;2023-03-17T21:09:09;2.85;57.06
65864;SHT30;52639;51.180;20.460;2023-03-17T21:13:15;2.82;57.53
65864;SHT30;52639;51.180;20.460;2023-03-17T21:17:20;2.77;57.82
65864;SHT30;52639;51.180;20.460;2023-03-17T21:21:28;2.72;57.31
65864;SHT30;52639;51.180;20.460;2023-03-17T21:25:34;2.86;57.45
65864;SHT30;52639;51.180;20.460;2023-03-17T21:29:50;2.77;57.26
65864;SHT30;52639;51.180;20.460;2023-03-17T21:34:03;2.80;58.04
65864;SHT30;52639;51.180;20.460;2023-03-17T21:38:10;2.73;57.46
65864;SHT30;52639;51.180;20.460;2023-03-17T21:42:13;2.83;57.84
65864;SHT30;52639;51.180;20.460;2023-03-17T21:46:16;2.66;57.39
65864;SHT30;52639;51.180;20.460;2023-03-17T21:50:19;2.68;58.06
65864;SHT30;52639;51.180;20.460;2023-03-17T21:54:24;2.60;57.70
65864;SHT30;52639;51.180;20.460;2023-03-17T21:58:28;2.73;57.88
65864;SHT30;52639;51.180;20.460;2023-03-17T22:02:31;2.72;57.33
65864;SHT30;52639;51.180;20.460;2023-03-17T22:06:34;2.79;57.87
65864;SHT30;52639;51.180;20.460;2023-03-17T22:10:39;2.71;57.74
65864;SHT30;52639;51.180;20.460;2023-03-17T22:14:42;2.75;56.83
65864;SHT30;52639;51.180;20.460;2023-03-17T22:18:45;2.79;57.57
65864;SHT30;52639;51.180;20.460;2023-03-17T22:22:48;2.77;56.75
65864;SHT30;52639;51.180;20.460;2023-03-17T22:26:53;3.03;57.22
65864;SHT30;52639;51.180;20.460;2023-03-17T22:30:56;2.99;56.32
65864;SHT30;52639;51.180;20.460;2023-03-17T22:34:59;3.06;56.24
65864;SHT30;52639;51.180;20.460;2023-03-17T22:39:02;2.90;56.30
65864;SHT30;52639;51.180;20.460;2023-03-17T22:43:07;2.95;56.06
65864;SHT30;52639;51.180;20.460;2023-03-17T22:47:10;3.06;55.89
65864;SHT30;52639;51.180;20.460;2023-03-17T22:51:15;3.00;55.84
65864;SHT30;52639;51.180;20.460;2023-03-17T22:55:18;2.99;55.83
65864;SHT30;52639;51.180;20.460;2023-03-17T22:59:22;3.09;55.63
65864;SHT30;52639;51.180;20.460;2023-03-17T23:03:27;3.09;55.19
65864;SHT30;52639;51.180;20.460;2023-03-17T23:07:32;2.97;55.19
65864;SHT30;52639;51.180;20.460;2023-03-17T23:11:35;3.11;55.13
65864;SHT30;52639;51.180;20.460;2023-03-17T23:15:40;3.16;55.27
65864;SHT30;52639;51.180;20.460;2023-03-17T23:19:42;3.03;55.67
65864;SHT30;52639;51.180;20.460;2023-03-17T23:23:45;3.03;56.13
65864;SHT30;52639;51.180;20.460;2023-03-17T23:27:48;3.09;55.84
65864;SHT30;52639;51.180;20.460;2023-03-17T23:31:53;2.87;55.82
65864;SHT30;52639;51.180;20.460;2023-03-17T23:35:56;2.99;55.59
65864;SHT30;52639;51.180;20.460;2023-03-17T23:39:59;2.92;55.98
65864;SHT30;52639;51.180;20.460;2023-03-17T23:44:02;2.86;56.69
65864;SHT30;52639;51.180;20.460;2023-03-17T23:48:07;2.69;57.17
65864;SHT30;52639;51.180;20.460;2023-03-17T23:52:11;2.69;57.01
65864;SHT30;52639;51.180;20.460;2023-03-17T23:56:13;2.71;57.18
